sensor_id;sensor_type;location;lat;lon;timestamp;P1;durP1;ratioP1;P2;durP2;ratioP2
60641;SDS011;46837;52.446;-1.930;2022-11-24T00:00:07;11.30;;;1.72;;
60641;SDS011;46837;52.446;-1.930;2022-11-24T00:01:08;8.52;;;1.60;;
60641;SDS011;46837;52.446;-1.930;2022-11-24T00:02:07;10.04;;;1.78;;
60641;SDS011;46837;52.446;-1.930;2022-11-24T00:03:07;10.16;;;1.38;;
60641;SDS011;46837;52.446;-1.930;2022-11-24T00:04:07;10.42;;;1.90;;
60641;SDS011;46837;52.446;-1.930;2022-11-24T00:05:07;9.30;;;1.72;;
60641;SDS011;46837;52.446;-1.930;2022-11-24T00:06:10;5.40;;;1.38;;
60641;SDS011;46837;52.446;-1.930;2022-11-24T00:07:07;7.44;;;1.28;;
60641;SDS011;46837;52.446;-1.930;2022-11-24T00:08:07;6.54;;;1.42;;
60641;SDS011;46837;52.446;-1.930;2022-11-24T00:09:07;3.54;;;1.02;;
60641;SDS011;46837;52.446;-1.930;2022-11-24T00:10:07;13.28;;;2.58;;
60641;SDS011;46837;52.446;-1.930;2022-11-24T00:11:07;8.30;;;1.70;;
60641;SDS011;46837;52.446;-1.930;2022-11-24T00:12:07;7.66;;;1.38;;
60641;SDS011;46837;52.446;-1.930;2022-11-24T00:13:07;11.24;;;1.58;;
60641;SDS011;46837;52.446;-1.930;2022-11-24T00:14:07;7.56;;;1.62;;
60641;SDS011;46837;52.446;-1.930;2022-11-24T00:15:07;10.50;;;1.60;;
60641;SDS011;46837;52.446;-1.930;2022-11-24T00:16:08;8.64;;;1.36;;
60641;SDS011;46837;52.446;-1.930;2022-11-24T00:17:07;8.80;;;2.22;;
60641;SDS011;46837;52.446;-1.930;2022-11-24T00:18:07;10.82;;;1.46;;
60641;SDS011;46837;52.446;-1.930;2022-11-24T00:19:07;6.42;;;1.82;;
60641;SDS011;46837;52.446;-1.930;2022-11-24T00:20:07;9.10;;;1.48;;
60641;SDS011;46837;52.446;-1.930;2022-11-24T00:21:07;10.64;;;2.28;;
60641;SDS011;46837;52.446;-1.930;2022-11-24T00:22:07;6.14;;;1.06;;
60641;SDS011;46837;52.446;-1.930;2022-11-24T00:23:07;8.40;;;1.06;;
60641;SDS011;46837;52.446;-1.930;2022-11-24T00:24:08;7.82;;;1.02;;
60641;SDS011;46837;52.446;-1.930;2022-11-24T00:25:07;11.22;;;1.46;;
60641;SDS011;46837;52.446;-1.930;2022-11-24T00:26:08;10.54;;;1.24;;
60641;SDS011;46837;52.446;-1.930;2022-11-24T00:27:07;9.24;;;1.08;;
60641;SDS011;46837;52.446;-1.930;2022-11-24T00:28:07;6.02;;;0.90;;
60641;SDS011;46837;52.446;-1.930;2022-11-24T00:29:08;7.04;;;1.26;;
60641;SDS011;46837;52.446;-1.930;2022-11-24T00:30:07;5.64;;;0.92;;
60641;SDS011;46837;52.446;-1.930;2022-11-24T00:32:07;5.12;;;1.06;;
60641;SDS011;46837;52.446;-1.930;2022-11-24T00:33:07;5.00;;;1.34;;
60641;SDS011;46837;52.446;-1.930;2022-11-24T00:34:09;11.26;;;1.26;;
60641;SDS011;46837;52.446;-1.930;2022-11-24T00:35:07;6.28;;;1.28;;
60641;SDS011;46837;52.446;-1.930;2022-11-24T00:36:07;5.86;;;0.94;;
60641;SDS011;46837;52.446;-1.930;2022-11-24T00:37:07;3.96;;;1.10;;
60641;SDS011;46837;52.446;-1.930;2022-11-24T00:38:07;4.16;;;0.78;;
60641;SDS011;46837;52.446;-1.930;2022-11-24T00:39:09;9.90;;;1.80;;
60641;SDS011;46837;52.446;-1.930;2022-11-24T00:40:07;6.16;;;1.20;;
60641;SDS011;46837;52.446;-1.930;2022-11-24T00:41:07;4.94;;;2.18;;
60641;SDS011;46837;52.446;-1.930;2022-11-24T00:42:07;6.32;;;0.80;;
60641;SDS011;46837;52.446;-1.930;2022-11-24T00:43:07;7.90;;;1.82;;
60641;SDS011;46837;52.446;-1.930;2022-11-24T00:44:07;8.56;;;1.08;;
60641;SDS011;46837;52.446;-1.930;2022-11-24T00:45:07;8.56;;;1.08;;
60641;SDS011;46837;52.446;-1.930;2022-11-24T00:46:07;7.58;;;0.88;;
60641;SDS011;46837;52.446;-1.930;2022-11-24T00:47:07;9.14;;;1.16;;
60641;SDS011;46837;52.446;-1.930;2022-11-24T00:48:07;10.08;;;1.02;;
60641;SDS011;46837;52.446;-1.930;2022-11-24T00:49:07;9.74;;;1.02;;
60641;SDS011;46837;52.446;-1.930;2022-11-24T00:50:07;4.42;;;1.24;;
60641;SDS011;46837;52.446;-1.930;2022-11-24T00:51:07;4.52;;;0.82;;
60641;SDS011;46837;52.446;-1.930;2022-11-24T00:52:07;9.52;;;2.06;;
60641;SDS011;46837;52.446;-1.930;2022-11-24T00:53:07;9.36;;;1.84;;
60641;SDS011;46837;52.446;-1.930;2022-11-24T00:54:07;5.40;;;0.90;;
60641;SDS011;46837;52.446;-1.930;2022-11-24T00:55:07;11.16;;;2.38;;
60641;SDS011;46837;52.446;-1.930;2022-11-24T00:56:07;4.92;;;1.02;;
60641;SDS011;46837;52.446;-1.930;2022-11-24T00:57:07;4.34;;;1.16;;
60641;SDS011;46837;52.446;-1.930;2022-11-24T00:58:07;5.30;;;0.74;;
60641;SDS011;46837;52.446;-1.930;2022-11-24T00:59:07;8.68;;;1.16;;
60641;SDS011;46837;52.446;-1.930;2022-11-24T01:00:07;7.24;;;3.20;;
60641;SDS011;46837;52.446;-1.930;2022-11-24T01:01:09;7.06;;;1.34;;
60641;SDS011;46837;52.446;-1.930;2022-11-24T01:02:07;5.60;;;1.50;;
60641;SDS011;46837;52.446;-1.930;2022-11-24T01:03:07;11.02;;;1.18;;
60641;SDS011;46837;52.446;-1.930;2022-11-24T01:04:07;5.44;;;1.58;;
60641;SDS011;46837;52.446;-1.930;2022-11-24T01:05:07;8.36;;;1.24;;
60641;SDS011;46837;52.446;-1.930;2022-11-24T01:06:08;8.46;;;1.16;;
60641;SDS011;46837;52.446;-1.930;2022-11-24T01:07:07;9.08;;;1.04;;
60641;SDS011;46837;52.446;-1.930;2022-11-24T01:08:07;10.34;;;2.08;;
60641;SDS011;46837;52.446;-1.930;2022-11-24T01:09:08;6.22;;;0.98;;
60641;SDS011;46837;52.446;-1.930;2022-11-24T01:10:07;4.04;;;1.44;;
60641;SDS011;46837;52.446;-1.930;2022-11-24T01:11:08;11.10;;;1.18;;
60641;SDS011;46837;52.446;-1.930;2022-11-24T01:12:07;7.16;;;1.04;;
60641;SDS011;46837;52.446;-1.930;2022-11-24T01:13:07;12.52;;;1.28;;
60641;SDS011;46837;52.446;-1.930;2022-11-24T01:14:07;9.74;;;1.28;;
60641;SDS011;46837;52.446;-1.930;2022-11-24T01:15:07;10.36;;;1.14;;
60641;SDS011;46837;52.446;-1.930;2022-11-24T01:17:07;12.48;;;2.14;;
60641;SDS011;46837;52.446;-1.930;2022-11-24T01:18:07;9.24;;;1.64;;
60641;SDS011;46837;52.446;-1.930;2022-11-24T01:19:07;9.42;;;1.36;;
60641;SDS011;46837;52.446;-1.930;2022-11-24T01:20:07;11.28;;;1.50;;
60641;SDS011;46837;52.446;-1.930;2022-11-24T01:21:07;13.04;;;1.86;;
60641;SDS011;46837;52.446;-1.930;2022-11-24T01:22:07;6.68;;;1.94;;
60641;SDS011;46837;52.446;-1.930;2022-11-24T01:23:07;7.50;;;1.16;;
60641;SDS011;46837;52.446;-1.930;2022-11-24T01:24:08;7.04;;;1.40;;
60641;SDS011;46837;52.446;-1.930;2022-11-24T01:25:07;10.22;;;1.72;;
60641;SDS011;46837;52.446;-1.930;2022-11-24T01:26:08;4.44;;;1.26;;
60641;SDS011;46837;52.446;-1.930;2022-11-24T01:27:07;10.24;;;1.46;;
60641;SDS011;46837;52.446;-1.930;2022-11-24T01:28:07;14.76;;;2.46;;
60641;SDS011;46837;52.446;-1.930;2022-11-24T01:29:08;9.56;;;1.84;;
60641;SDS011;46837;52.446;-1.930;2022-11-24T01:30:07;8.24;;;2.14;;
60641;SDS011;46837;52.446;-1.930;2022-11-24T01:31:07;5.58;;;1.30;;
60641;SDS011;46837;52.446;-1.930;2022-11-24T01:32:07;6.42;;;1.06;;
60641;SDS011;46837;52.446;-1.930;2022-11-24T01:33:07;13.88;;;2.08;;
60641;SDS011;46837;52.446;-1.930;2022-11-24T01:34:07;10.84;;;2.34;;
60641;SDS011;46837;52.446;-1.930;2022-11-24T01:35:07;15.98;;;1.72;;
60641;SDS011;46837;52.446;-1.930;2022-11-24T01:36:07;12.32;;;1.42;;
60641;SDS011;46837;52.446;-1.930;2022-11-24T01:37:07;7.04;;;1.64;;
60641;SDS011;46837;52.446;-1.930;2022-11-24T01:38:07;11.28;;;1.78;;
60641;SDS011;46837;52.446;-1.930;2022-11-24T01:39:07;11.10;;;1.94;;
60641;SDS011;46837;52.446;-1.930;2022-11-24T01:40:07;9.96;;;1.46;;
60641;SDS011;46837;52.446;-1.930;2022-11-24T01:41:11;14.30;;;1.22;;
60641;SDS011;46837;52.446;-1.930;2022-11-24T01:42:07;9.08;;;1.94;;
60641;SDS011;46837;52.446;-1.930;2022-11-24T01:47:15;14.44;;;3.02;;
60641;SDS011;46837;52.446;-1.930;2022-11-24T01:50:08;10.44;;;1.72;;
60641;SDS011;46837;52.446;-1.930;2022-11-24T01:51:09;10.18;;;1.24;;
60641;SDS011;46837;52.446;-1.930;2022-11-24T01:53:07;5.90;;;1.64;;
60641;SDS011;46837;52.446;-1.930;2022-11-24T01:55:07;7.90;;;1.60;;
60641;SDS011;46837;52.446;-1.930;2022-11-24T01:56:07;18.36;;;2.42;;
60641;SDS011;46837;52.446;-1.930;2022-11-24T01:57:09;11.84;;;1.62;;
60641;SDS011;46837;52.446;-1.930;2022-11-24T01:59:07;12.78;;;1.80;;
60641;SDS011;46837;52.446;-1.930;2022-11-24T02:00:07;12.14;;;2.40;;
60641;SDS011;46837;52.446;-1.930;2022-11-24T02:01:07;13.36;;;1.96;;
60641;SDS011;46837;52.446;-1.930;2022-11-24T02:02:07;11.92;;;2.54;;
60641;SDS011;46837;52.446;-1.930;2022-11-24T02:03:07;8.06;;;1.60;;
60641;SDS011;46837;52.446;-1.930;2022-11-24T02:04:08;11.36;;;2.54;;
60641;SDS011;46837;52.446;-1.930;2022-11-24T02:05:09;8.50;;;2.48;;
60641;SDS011;46837;52.446;-1.930;2022-11-24T02:06:10;8.70;;;1.06;;
60641;SDS011;46837;52.446;-1.930;2022-11-24T02:07:07;6.30;;;1.38;;
60641;SDS011;46837;52.446;-1.930;2022-11-24T02:08:09;9.78;;;2.66;;
60641;SDS011;46837;52.446;-1.930;2022-11-24T02:09:10;9.22;;;3.34;;
60641;SDS011;46837;52.446;-1.930;2022-11-24T02:10:07;13.64;;;1.58;;
60641;SDS011;46837;52.446;-1.930;2022-11-24T02:11:07;14.34;;;3.34;;
60641;SDS011;46837;52.446;-1.930;2022-11-24T02:12:07;14.92;;;1.44;;
60641;SDS011;46837;52.446;-1.930;2022-11-24T02:13:07;14.68;;;1.88;;
60641;SDS011;46837;52.446;-1.930;2022-11-24T02:14:09;17.68;;;1.98;;
60641;SDS011;46837;52.446;-1.930;2022-11-24T02:15:07;17.20;;;1.82;;
60641;SDS011;46837;52.446;-1.930;2022-11-24T02:16:07;4.12;;;0.86;;
60641;SDS011;46837;52.446;-1.930;2022-11-24T02:17:07;9.38;;;1.66;;
60641;SDS011;46837;52.446;-1.930;2022-11-24T02:18:07;9.18;;;1.42;;
60641;SDS011;46837;52.446;-1.930;2022-11-24T02:19:12;15.66;;;1.90;;
60641;SDS011;46837;52.446;-1.930;2022-11-24T02:20:07;15.52;;;1.72;;
60641;SDS011;46837;52.446;-1.930;2022-11-24T02:21:07;15.24;;;2.10;;
60641;SDS011;46837;52.446;-1.930;2022-11-24T02:22:10;17.80;;;1.66;;
60641;SDS011;46837;52.446;-1.930;2022-11-24T02:23:13;11.40;;;3.36;;
60641;SDS011;46837;52.446;-1.930;2022-11-24T02:24:16;16.08;;;1.92;;
60641;SDS011;46837;52.446;-1.930;2022-11-24T02:26:13;9.80;;;2.26;;
60641;SDS011;46837;52.446;-1.930;2022-11-24T02:27:07;12.98;;;2.08;;
60641;SDS011;46837;52.446;-1.930;2022-11-24T02:28:08;15.38;;;2.04;;
60641;SDS011;46837;52.446;-1.930;2022-11-24T02:29:07;18.20;;;1.60;;
60641;SDS011;46837;52.446;-1.930;2022-11-24T02:30:07;9.96;;;1.68;;
60641;SDS011;46837;52.446;-1.930;2022-11-24T02:31:07;10.72;;;2.92;;
60641;SDS011;46837;52.446;-1.930;2022-11-24T02:32:07;10.04;;;1.64;;
60641;SDS011;46837;52.446;-1.930;2022-11-24T02:33:07;10.46;;;2.62;;
60641;SDS011;46837;52.446;-1.930;2022-11-24T02:34:07;10.06;;;1.94;;
60641;SDS011;46837;52.446;-1.930;2022-11-24T02:35:07;14.44;;;3.02;;
60641;SDS011;46837;52.446;-1.930;2022-11-24T02:36:07;8.26;;;1.64;;
60641;SDS011;46837;52.446;-1.930;2022-11-24T02:37:07;11.78;;;1.80;;
60641;SDS011;46837;52.446;-1.930;2022-11-24T02:38:09;20.72;;;3.28;;
60641;SDS011;46837;52.446;-1.930;2022-11-24T02:39:10;12.56;;;1.84;;
60641;SDS011;46837;52.446;-1.930;2022-11-24T02:40:07;11.74;;;1.66;;
60641;SDS011;46837;52.446;-1.930;2022-11-24T02:41:07;11.88;;;1.28;;
60641;SDS011;46837;52.446;-1.930;2022-11-24T02:42:07;12.30;;;1.86;;
60641;SDS011;46837;52.446;-1.930;2022-11-24T02:43:08;12.34;;;1.80;;
60641;SDS011;46837;52.446;-1.930;2022-11-24T02:44:07;23.46;;;4.28;;
60641;SDS011;46837;52.446;-1.930;2022-11-24T02:45:07;11.20;;;2.24;;
60641;SDS011;46837;52.446;-1.930;2022-11-24T02:46:07;12.56;;;1.70;;
60641;SDS011;46837;52.446;-1.930;2022-11-24T02:47:08;13.28;;;2.20;;
60641;SDS011;46837;52.446;-1.930;2022-11-24T02:48:07;14.04;;;2.36;;
60641;SDS011;46837;52.446;-1.930;2022-11-24T02:49:07;19.28;;;2.22;;
60641;SDS011;46837;52.446;-1.930;2022-11-24T02:50:07;16.86;;;2.10;;
60641;SDS011;46837;52.446;-1.930;2022-11-24T02:51:07;19.40;;;2.22;;
60641;SDS011;46837;52.446;-1.930;2022-11-24T02:52:07;29.84;;;3.66;;
60641;SDS011;46837;52.446;-1.930;2022-11-24T02:53:07;14.48;;;2.16;;
60641;SDS011;46837;52.446;-1.930;2022-11-24T02:54:07;20.90;;;2.08;;
60641;SDS011;46837;52.446;-1.930;2022-11-24T02:55:07;13.40;;;2.06;;
60641;SDS011;46837;52.446;-1.930;2022-11-24T02:56:07;17.08;;;2.10;;
60641;SDS011;46837;52.446;-1.930;2022-11-24T02:57:07;13.02;;;1.96;;
60641;SDS011;46837;52.446;-1.930;2022-11-24T02:58:07;19.78;;;2.56;;
60641;SDS011;46837;52.446;-1.930;2022-11-24T02:59:07;10.96;;;2.50;;
60641;SDS011;46837;52.446;-1.930;2022-11-24T03:00:07;11.62;;;2.06;;
60641;SDS011;46837;52.446;-1.930;2022-11-24T03:01:07;12.46;;;2.02;;
60641;SDS011;46837;52.446;-1.930;2022-11-24T03:02:07;16.06;;;1.92;;
60641;SDS011;46837;52.446;-1.930;2022-11-24T03:03:07;8.18;;;1.84;;
60641;SDS011;46837;52.446;-1.930;2022-11-24T03:04:07;19.54;;;2.94;;
60641;SDS011;46837;52.446;-1.930;2022-11-24T03:05:07;14.34;;;1.96;;
60641;SDS011;46837;52.446;-1.930;2022-11-24T03:06:07;18.48;;;3.94;;
60641;SDS011;46837;52.446;-1.930;2022-11-24T03:07:07;24.12;;;2.96;;
60641;SDS011;46837;52.446;-1.930;2022-11-24T03:08:07;16.20;;;2.10;;
60641;SDS011;46837;52.446;-1.930;2022-11-24T03:09:07;16.36;;;1.78;;
60641;SDS011;46837;52.446;-1.930;2022-11-24T03:10:07;10.24;;;1.86;;
60641;SDS011;46837;52.446;-1.930;2022-11-24T03:11:07;18.40;;;2.58;;
60641;SDS011;46837;52.446;-1.930;2022-11-24T03:12:07;22.72;;;1.90;;
60641;SDS011;46837;52.446;-1.930;2022-11-24T03:13:07;13.52;;;2.18;;
60641;SDS011;46837;52.446;-1.930;2022-11-24T03:14:07;15.94;;;2.32;;
60641;SDS011;46837;52.446;-1.930;2022-11-24T03:15:07;14.82;;;3.52;;
60641;SDS011;46837;52.446;-1.930;2022-11-24T03:16:07;16.30;;;3.32;;
60641;SDS011;46837;52.446;-1.930;2022-11-24T03:17:07;14.42;;;2.16;;
60641;SDS011;46837;52.446;-1.930;2022-11-24T03:18:07;17.52;;;3.38;;
60641;SDS011;46837;52.446;-1.930;2022-11-24T03:19:07;14.30;;;2.52;;
60641;SDS011;46837;52.446;-1.930;2022-11-24T03:20:07;17.86;;;2.96;;
60641;SDS011;46837;52.446;-1.930;2022-11-24T03:21:07;15.48;;;2.24;;
60641;SDS011;46837;52.446;-1.930;2022-11-24T03:22:07;19.60;;;2.54;;
60641;SDS011;46837;52.446;-1.930;2022-11-24T03:23:07;18.78;;;2.40;;
60641;SDS011;46837;52.446;-1.930;2022-11-24T03:24:07;18.24;;;2.24;;
60641;SDS011;46837;52.446;-1.930;2022-11-24T03:25:07;13.48;;;2.04;;
60641;SDS011;46837;52.446;-1.930;2022-11-24T03:26:11;12.72;;;2.34;;
60641;SDS011;46837;52.446;-1.930;2022-11-24T03:27:07;16.56;;;2.64;;
60641;SDS011;46837;52.446;-1.930;2022-11-24T03:28:07;20.58;;;2.28;;
60641;SDS011;46837;52.446;-1.930;2022-11-24T03:29:07;21.70;;;2.76;;
60641;SDS011;46837;52.446;-1.930;2022-11-24T03:30:07;16.58;;;2.40;;
60641;SDS011;46837;52.446;-1.930;2022-11-24T03:31:07;19.36;;;2.94;;
60641;SDS011;46837;52.446;-1.930;2022-11-24T03:32:07;20.88;;;2.96;;
60641;SDS011;46837;52.446;-1.930;2022-11-24T03:33:07;18.22;;;2.46;;
60641;SDS011;46837;52.446;-1.930;2022-11-24T03:34:07;15.22;;;2.26;;
60641;SDS011;46837;52.446;-1.930;2022-11-24T03:35:07;17.40;;;2.62;;
60641;SDS011;46837;52.446;-1.930;2022-11-24T03:36:07;23.62;;;3.22;;
60641;SDS011;46837;52.446;-1.930;2022-11-24T03:37:07;17.58;;;2.24;;
60641;SDS011;46837;52.446;-1.930;2022-11-24T03:38:07;17.34;;;3.16;;
60641;SDS011;46837;52.446;-1.930;2022-11-24T03:39:07;16.68;;;2.50;;
60641;SDS011;46837;52.446;-1.930;2022-11-24T03:40:07;16.90;;;2.50;;
60641;SDS011;46837;52.446;-1.930;2022-11-24T03:41:07;16.32;;;3.08;;
60641;SDS011;46837;52.446;-1.930;2022-11-24T03:42:07;17.80;;;2.14;;
60641;SDS011;46837;52.446;-1.930;2022-11-24T03:43:07;18.82;;;2.76;;
60641;SDS011;46837;52.446;-1.930;2022-11-24T03:44:07;14.96;;;2.64;;
60641;SDS011;46837;52.446;-1.930;2022-11-24T03:45:07;23.40;;;3.56;;
60641;SDS011;46837;52.446;-1.930;2022-11-24T03:46:07;16.78;;;2.92;;
60641;SDS011;46837;52.446;-1.930;2022-11-24T03:47:07;24.66;;;3.34;;
60641;SDS011;46837;52.446;-1.930;2022-11-24T03:48:07;21.70;;;3.26;;
60641;SDS011;46837;52.446;-1.930;2022-11-24T03:49:07;18.30;;;3.54;;
60641;SDS011;46837;52.446;-1.930;2022-11-24T03:50:07;12.80;;;2.40;;
60641;SDS011;46837;52.446;-1.930;2022-11-24T03:51:07;31.62;;;4.18;;
60641;SDS011;46837;52.446;-1.930;2022-11-24T03:52:07;29.16;;;3.58;;
60641;SDS011;46837;52.446;-1.930;2022-11-24T03:53:07;23.32;;;2.68;;
60641;SDS011;46837;52.446;-1.930;2022-11-24T03:54:07;21.44;;;2.88;;
60641;SDS011;46837;52.446;-1.930;2022-11-24T03:55:07;17.62;;;2.66;;
60641;SDS011;46837;52.446;-1.930;2022-11-24T03:56:07;17.64;;;3.22;;
60641;SDS011;46837;52.446;-1.930;2022-11-24T03:57:07;27.96;;;3.70;;
60641;SDS011;46837;52.446;-1.930;2022-11-24T03:58:07;23.64;;;3.50;;
60641;SDS011;46837;52.446;-1.930;2022-11-24T03:59:07;20.40;;;3.56;;
60641;SDS011;46837;52.446;-1.930;2022-11-24T04:00:07;21.02;;;3.06;;
60641;SDS011;46837;52.446;-1.930;2022-11-24T04:01:07;18.94;;;2.78;;
60641;SDS011;46837;52.446;-1.930;2022-11-24T04:02:07;24.18;;;4.02;;
60641;SDS011;46837;52.446;-1.930;2022-11-24T04:03:07;19.26;;;4.02;;
60641;SDS011;46837;52.446;-1.930;2022-11-24T04:04:08;19.66;;;3.94;;
60641;SDS011;46837;52.446;-1.930;2022-11-24T04:05:07;30.70;;;3.72;;
60641;SDS011;46837;52.446;-1.930;2022-11-24T04:06:07;25.94;;;3.16;;
60641;SDS011;46837;52.446;-1.930;2022-11-24T04:07:07;21.68;;;2.54;;
60641;SDS011;46837;52.446;-1.930;2022-11-24T04:08:07;20.06;;;3.76;;
60641;SDS011;46837;52.446;-1.930;2022-11-24T04:09:07;32.70;;;5.78;;
60641;SDS011;46837;52.446;-1.930;2022-11-24T04:10:07;35.84;;;3.68;;
60641;SDS011;46837;52.446;-1.930;2022-11-24T04:11:07;20.26;;;2.74;;
60641;SDS011;46837;52.446;-1.930;2022-11-24T04:12:11;24.10;;;2.98;;
60641;SDS011;46837;52.446;-1.930;2022-11-24T04:13:11;15.48;;;2.46;;
60641;SDS011;46837;52.446;-1.930;2022-11-24T04:14:07;31.72;;;4.88;;
60641;SDS011;46837;52.446;-1.930;2022-11-24T04:15:07;16.06;;;2.72;;
60641;SDS011;46837;52.446;-1.930;2022-11-24T04:16:07;29.16;;;3.70;;
60641;SDS011;46837;52.446;-1.930;2022-11-24T04:17:07;17.04;;;2.76;;
60641;SDS011;46837;52.446;-1.930;2022-11-24T04:18:07;28.22;;;3.58;;
60641;SDS011;46837;52.446;-1.930;2022-11-24T04:19:07;20.28;;;2.74;;
60641;SDS011;46837;52.446;-1.930;2022-11-24T04:20:07;22.10;;;2.54;;
60641;SDS011;46837;52.446;-1.930;2022-11-24T04:21:07;29.12;;;2.66;;
60641;SDS011;46837;52.446;-1.930;2022-11-24T04:22:07;16.60;;;2.62;;
60641;SDS011;46837;52.446;-1.930;2022-11-24T04:23:07;13.94;;;3.32;;
60641;SDS011;46837;52.446;-1.930;2022-11-24T04:24:07;22.16;;;3.70;;
60641;SDS011;46837;52.446;-1.930;2022-11-24T04:25:07;21.80;;;3.02;;
60641;SDS011;46837;52.446;-1.930;2022-11-24T04:26:07;20.88;;;4.40;;
60641;SDS011;46837;52.446;-1.930;2022-11-24T04:27:07;32.92;;;4.64;;
60641;SDS011;46837;52.446;-1.930;2022-11-24T04:28:07;25.76;;;3.72;;
60641;SDS011;46837;52.446;-1.930;2022-11-24T04:29:08;25.10;;;4.46;;
60641;SDS011;46837;52.446;-1.930;2022-11-24T04:30:07;18.14;;;4.08;;
60641;SDS011;46837;52.446;-1.930;2022-11-24T04:31:07;21.06;;;2.84;;
60641;SDS011;46837;52.446;-1.930;2022-11-24T04:32:07;23.54;;;2.88;;
60641;SDS011;46837;52.446;-1.930;2022-11-24T04:33:07;21.04;;;3.36;;
60641;SDS011;46837;52.446;-1.930;2022-11-24T04:34:07;22.94;;;4.04;;
60641;SDS011;46837;52.446;-1.930;2022-11-24T04:35:07;16.62;;;2.92;;
60641;SDS011;46837;52.446;-1.930;2022-11-24T04:36:07;30.62;;;4.76;;
60641;SDS011;46837;52.446;-1.930;2022-11-24T04:37:07;25.22;;;3.32;;
60641;SDS011;46837;52.446;-1.930;2022-11-24T04:38:07;29.52;;;3.84;;
60641;SDS011;46837;52.446;-1.930;2022-11-24T04:39:07;27.80;;;4.16;;
60641;SDS011;46837;52.446;-1.930;2022-11-24T04:40:07;27.66;;;3.12;;
60641;SDS011;46837;52.446;-1.930;2022-11-24T04:41:07;23.08;;;2.90;;
60641;SDS011;46837;52.446;-1.930;2022-11-24T04:42:07;18.38;;;3.72;;
60641;SDS011;46837;52.446;-1.930;2022-11-24T04:43:07;22.32;;;3.78;;
60641;SDS011;46837;52.446;-1.930;2022-11-24T04:44:07;17.44;;;2.42;;
60641;SDS011;46837;52.446;-1.930;2022-11-24T04:45:07;30.56;;;4.48;;
60641;SDS011;46837;52.446;-1.930;2022-11-24T04:46:08;28.38;;;3.70;;
60641;SDS011;46837;52.446;-1.930;2022-11-24T04:47:09;22.76;;;2.92;;
60641;SDS011;46837;52.446;-1.930;2022-11-24T04:48:07;26.28;;;4.96;;
60641;SDS011;46837;52.446;-1.930;2022-11-24T04:49:07;30.94;;;4.68;;
60641;SDS011;46837;52.446;-1.930;2022-11-24T04:50:07;23.08;;;3.30;;
60641;SDS011;46837;52.446;-1.930;2022-11-24T04:51:07;20.50;;;3.94;;
60641;SDS011;46837;52.446;-1.930;2022-11-24T04:52:07;16.12;;;2.78;;
60641;SDS011;46837;52.446;-1.930;2022-11-24T04:53:07;23.12;;;3.12;;
60641;SDS011;46837;52.446;-1.930;2022-11-24T04:54:08;19.92;;;3.44;;
60641;SDS011;46837;52.446;-1.930;2022-11-24T04:55:07;20.20;;;3.08;;
60641;SDS011;46837;52.446;-1.930;2022-11-24T04:56:07;21.10;;;3.04;;
60641;SDS011;46837;52.446;-1.930;2022-11-24T04:57:08;36.14;;;3.84;;
60641;SDS011;46837;52.446;-1.930;2022-11-24T04:58:07;28.74;;;4.46;;
60641;SDS011;46837;52.446;-1.930;2022-11-24T04:59:07;37.72;;;4.32;;
60641;SDS011;46837;52.446;-1.930;2022-11-24T05:00:07;30.52;;;3.86;;
60641;SDS011;46837;52.446;-1.930;2022-11-24T05:01:07;22.46;;;3.00;;
60641;SDS011;46837;52.446;-1.930;2022-11-24T05:02:07;23.62;;;2.42;;
60641;SDS011;46837;52.446;-1.930;2022-11-24T05:03:07;18.96;;;4.00;;
60641;SDS011;46837;52.446;-1.930;2022-11-24T05:04:08;30.94;;;3.60;;
60641;SDS011;46837;52.446;-1.930;2022-11-24T05:05:07;26.28;;;3.36;;
60641;SDS011;46837;52.446;-1.930;2022-11-24T05:06:07;24.14;;;3.40;;
60641;SDS011;46837;52.446;-1.930;2022-11-24T05:07:09;28.34;;;3.04;;
60641;SDS011;46837;52.446;-1.930;2022-11-24T05:08:07;25.72;;;3.18;;
60641;SDS011;46837;52.446;-1.930;2022-11-24T05:09:07;27.18;;;5.02;;
60641;SDS011;46837;52.446;-1.930;2022-11-24T05:10:11;24.08;;;4.78;;
60641;SDS011;46837;52.446;-1.930;2022-11-24T05:11:07;24.56;;;2.44;;
60641;SDS011;46837;52.446;-1.930;2022-11-24T05:12:07;18.44;;;3.06;;
60641;SDS011;46837;52.446;-1.930;2022-11-24T05:13:10;23.50;;;3.00;;
60641;SDS011;46837;52.446;-1.930;2022-11-24T05:14:07;24.20;;;3.14;;
60641;SDS011;46837;52.446;-1.930;2022-11-24T05:15:07;26.10;;;4.32;;
60641;SDS011;46837;52.446;-1.930;2022-11-24T05:16:07;23.14;;;3.82;;
60641;SDS011;46837;52.446;-1.930;2022-11-24T05:17:07;24.32;;;2.92;;
60641;SDS011;46837;52.446;-1.930;2022-11-24T05:18:07;28.48;;;3.30;;
60641;SDS011;46837;52.446;-1.930;2022-11-24T05:19:07;17.16;;;4.00;;
60641;SDS011;46837;52.446;-1.930;2022-11-24T05:20:07;24.68;;;3.66;;
60641;SDS011;46837;52.446;-1.930;2022-11-24T05:21:07;21.78;;;2.58;;
60641;SDS011;46837;52.446;-1.930;2022-11-24T05:22:07;21.30;;;2.42;;
60641;SDS011;46837;52.446;-1.930;2022-11-24T05:23:07;23.00;;;3.04;;
60641;SDS011;46837;52.446;-1.930;2022-11-24T05:24:07;17.76;;;3.56;;
60641;SDS011;46837;52.446;-1.930;2022-11-24T05:25:07;39.36;;;4.56;;
60641;SDS011;46837;52.446;-1.930;2022-11-24T05:26:07;27.56;;;3.60;;
60641;SDS011;46837;52.446;-1.930;2022-11-24T05:27:07;26.78;;;2.88;;
60641;SDS011;46837;52.446;-1.930;2022-11-24T05:28:07;15.98;;;3.20;;
60641;SDS011;46837;52.446;-1.930;2022-11-24T05:29:07;35.56;;;3.30;;
60641;SDS011;46837;52.446;-1.930;2022-11-24T05:30:07;17.88;;;3.56;;
60641;SDS011;46837;52.446;-1.930;2022-11-24T05:31:07;22.78;;;3.76;;
60641;SDS011;46837;52.446;-1.930;2022-11-24T05:32:07;22.40;;;3.08;;
60641;SDS011;46837;52.446;-1.930;2022-11-24T05:33:07;22.30;;;2.96;;
60641;SDS011;46837;52.446;-1.930;2022-11-24T05:34:07;29.96;;;3.86;;
60641;SDS011;46837;52.446;-1.930;2022-11-24T05:35:07;18.42;;;3.72;;
60641;SDS011;46837;52.446;-1.930;2022-11-24T05:36:07;18.34;;;2.96;;
60641;SDS011;46837;52.446;-1.930;2022-11-24T05:37:07;36.32;;;4.88;;
60641;SDS011;46837;52.446;-1.930;2022-11-24T05:38:07;30.92;;;3.56;;
60641;SDS011;46837;52.446;-1.930;2022-11-24T05:39:07;27.26;;;2.62;;
60641;SDS011;46837;52.446;-1.930;2022-11-24T05:40:07;24.98;;;2.74;;
60641;SDS011;46837;52.446;-1.930;2022-11-24T05:41:07;26.78;;;3.76;;
60641;SDS011;46837;52.446;-1.930;2022-11-24T05:42:11;20.38;;;4.32;;
60641;SDS011;46837;52.446;-1.930;2022-11-24T05:43:13;16.80;;;2.58;;
60641;SDS011;46837;52.446;-1.930;2022-11-24T05:44:07;25.96;;;2.88;;
60641;SDS011;46837;52.446;-1.930;2022-11-24T05:45:10;24.42;;;3.98;;
60641;SDS011;46837;52.446;-1.930;2022-11-24T05:46:07;29.38;;;4.42;;
60641;SDS011;46837;52.446;-1.930;2022-11-24T05:47:07;26.96;;;3.34;;
60641;SDS011;46837;52.446;-1.930;2022-11-24T05:48:07;27.64;;;3.52;;
60641;SDS011;46837;52.446;-1.930;2022-11-24T05:49:07;24.26;;;3.68;;
60641;SDS011;46837;52.446;-1.930;2022-11-24T05:50:07;22.44;;;2.96;;
60641;SDS011;46837;52.446;-1.930;2022-11-24T05:51:07;26.02;;;4.88;;
60641;SDS011;46837;52.446;-1.930;2022-11-24T05:52:07;27.22;;;4.10;;
60641;SDS011;46837;52.446;-1.930;2022-11-24T05:53:08;31.46;;;3.74;;
60641;SDS011;46837;52.446;-1.930;2022-11-24T05:54:07;26.22;;;3.44;;
60641;SDS011;46837;52.446;-1.930;2022-11-24T05:55:07;29.72;;;3.98;;
60641;SDS011;46837;52.446;-1.930;2022-11-24T05:56:07;20.10;;;4.58;;
60641;SDS011;46837;52.446;-1.930;2022-11-24T05:57:07;23.36;;;3.26;;
60641;SDS011;46837;52.446;-1.930;2022-11-24T05:58:07;16.60;;;2.66;;
60641;SDS011;46837;52.446;-1.930;2022-11-24T05:59:07;28.16;;;4.36;;
60641;SDS011;46837;52.446;-1.930;2022-11-24T06:00:07;24.62;;;3.90;;
60641;SDS011;46837;52.446;-1.930;2022-11-24T06:01:07;38.52;;;4.74;;
60641;SDS011;46837;52.446;-1.930;2022-11-24T06:02:07;31.22;;;3.74;;
60641;SDS011;46837;52.446;-1.930;2022-11-24T06:03:07;24.62;;;5.08;;